createdAt,value
2022-12-27T00:00:53.841Z,4.10
2022-12-27T00:03:20.556Z,4.10
2022-12-27T00:05:48.125Z,4.20
2022-12-27T00:08:15.095Z,4.20
2022-12-27T00:10:41.767Z,4.10
2022-12-27T00:13:08.715Z,4.10
2022-12-27T00:15:36.500Z,4.00
2022-12-27T00:18:03.388Z,3.90
2022-12-27T00:20:30.021Z,3.90
2022-12-27T00:22:59.505Z,3.90
2022-12-27T00:25:51.500Z,3.80
2022-12-27T00:28:18.492Z,3.70
2022-12-27T00:30:45.098Z,3.70
2022-12-27T00:33:11.729Z,3.60
2022-12-27T00:35:39.593Z,3.60
2022-12-27T00:38:07.029Z,3.60
2022-12-27T00:40:33.744Z,3.60
2022-12-27T00:43:00.339Z,3.60
2022-12-27T00:45:27.230Z,3.60
2022-12-27T00:47:53.869Z,3.50
2022-12-27T00:50:26.654Z,3.40
2022-12-27T00:52:53.337Z,3.40
2022-12-27T00:55:20.209Z,3.30
2022-12-27T00:57:46.978Z,3.30
2022-12-27T01:00:14.467Z,3.20
2022-12-27T01:02:41.215Z,3.20
2022-12-27T01:05:08.979Z,3.10
2022-12-27T01:07:35.819Z,3.10
2022-12-27T01:10:32.515Z,3.00
2022-12-27T01:13:02.658Z,3.00
2022-12-27T01:15:29.662Z,2.90
2022-12-27T01:17:56.255Z,2.80
2022-12-27T01:20:29.130Z,2.70
2022-12-27T01:22:55.721Z,2.60
2022-12-27T01:25:22.651Z,2.60
2022-12-27T01:27:49.305Z,2.60
2022-12-27T01:30:16.194Z,2.50
2022-12-27T01:32:43.060Z,2.50
2022-12-27T01:35:09.699Z,2.40
2022-12-27T01:37:36.376Z,2.40
2022-12-27T01:40:03.773Z,2.30
2022-12-27T01:42:49.295Z,2.20
2022-12-27T01:45:16.966Z,2.00
2022-12-27T01:47:59.501Z,1.90
2022-12-27T01:51:02.000Z,1.80
2022-12-27T01:53:33.422Z,1.70
2022-12-27T01:56:40.257Z,1.60
2022-12-27T01:59:09.472Z,1.50
2022-12-27T02:01:42.557Z,1.40
2022-12-27T02:04:19.325Z,1.30
2022-12-27T02:06:46.917Z,1.20
2022-12-27T02:09:23.521Z,1.20
2022-12-27T02:11:55.373Z,1.20
2022-12-27T02:14:36.134Z,1.10
2022-12-27T02:17:10.129Z,1.10
2022-12-27T02:19:42.800Z,1.00
2022-12-27T02:22:31.514Z,1.00
2022-12-27T02:25:07.131Z,0.90
2022-12-27T02:27:36.844Z,0.90
2022-12-27T02:30:15.692Z,0.80
2022-12-27T02:32:59.618Z,0.70
2022-12-27T02:35:50.513Z,0.70
2022-12-27T02:38:21.618Z,0.70
2022-12-27T02:41:08.908Z,0.60
2022-12-27T02:43:54.237Z,0.60
2022-12-27T02:47:05.567Z,0.60
2022-12-27T02:49:53.048Z,0.60
2022-12-27T02:53:07.842Z,0.60
2022-12-27T02:56:08.667Z,0.50
2022-12-27T02:59:19.814Z,0.50
2022-12-27T03:02:11.458Z,0.50
2022-12-27T03:04:59.507Z,0.50
2022-12-27T03:07:47.037Z,0.40
2022-12-27T03:11:00.450Z,0.30
2022-12-27T03:13:49.933Z,0.30
2022-12-27T03:16:27.952Z,0.30
2022-12-27T03:19:40.476Z,0.20
2022-12-27T03:22:28.295Z,0.20
2022-12-27T03:25:15.657Z,0.20
2022-12-27T03:27:45.872Z,0.20
2022-12-27T03:30:48.834Z,0.20
2022-12-27T03:33:15.591Z,0.20
2022-12-27T03:36:09.161Z,0.20
2022-12-27T03:38:43.350Z,0.10
2022-12-27T03:41:33.479Z,0.10
2022-12-27T03:44:00.137Z,0.10
2022-12-27T03:46:33.988Z,0.10
2022-12-27T03:49:09.966Z,0.10
2022-12-27T03:51:42.029Z,0.10
2022-12-27T03:54:37.796Z,0.20
2022-12-27T03:57:16.660Z,0.10
2022-12-27T04:00:10.956Z,0.10
2022-12-27T04:02:37.989Z,0.10
2022-12-27T04:05:04.960Z,0.10
2022-12-27T04:07:31.837Z,0.00
2022-12-27T04:10:17.010Z,0.00
2022-12-27T04:13:02.551Z,0.00
2022-12-27T04:15:48.663Z,-0.10
2022-12-27T04:18:34.384Z,-0.10
2022-12-27T04:21:42.386Z,-0.10
2022-12-27T04:24:28.137Z,-0.10
2022-12-27T04:27:13.306Z,-0.10
2022-12-27T04:30:20.803Z,-0.20
2022-12-27T04:33:14.029Z,-0.10
2022-12-27T04:35:54.855Z,-0.10
2022-12-27T04:38:22.391Z,-0.10
2022-12-27T04:41:12.935Z,0.00
2022-12-27T04:43:58.420Z,0.00
2022-12-27T04:46:45.351Z,0.10
2022-12-27T04:49:45.241Z,0.10
2022-12-27T04:53:01.680Z,0.10
2022-12-27T04:55:30.065Z,0.20
2022-12-27T04:57:58.051Z,0.20
2022-12-27T05:00:49.693Z,0.20
2022-12-27T05:03:24.284Z,0.20
2022-12-27T05:05:52.401Z,0.10
2022-12-27T05:08:39.787Z,0.20
2022-12-27T05:11:27.044Z,0.20
2022-12-27T05:14:00.291Z,0.30
2022-12-27T05:16:32.418Z,0.40
2022-12-27T05:18:59.783Z,0.50
2022-12-27T05:21:26.791Z,0.60
2022-12-27T05:24:52.226Z,0.70
2022-12-27T05:27:19.350Z,0.70
2022-12-27T05:29:55.197Z,0.70
2022-12-27T05:32:22.929Z,0.70
2022-12-27T05:35:09.866Z,0.70
2022-12-27T05:37:36.687Z,0.80
2022-12-27T05:40:03.976Z,0.80
2022-12-27T05:42:31.720Z,0.90
2022-12-27T05:44:58.339Z,0.90
2022-12-27T05:47:28.316Z,1.00
2022-12-27T05:49:55.243Z,1.10
2022-12-27T05:52:21.994Z,1.10
2022-12-27T05:54:48.869Z,1.10
2022-12-27T05:57:15.511Z,1.20
2022-12-27T05:59:42.105Z,1.20
2022-12-27T06:02:09.154Z,1.20
2022-12-27T06:04:35.896Z,1.20
2022-12-27T06:07:02.556Z,1.20
2022-12-27T06:09:29.466Z,1.30
2022-12-27T06:11:56.045Z,1.30
2022-12-27T06:14:22.795Z,1.30
2022-12-27T06:16:49.846Z,1.30
2022-12-27T06:19:16.935Z,1.30
2022-12-27T06:21:43.775Z,1.30
2022-12-27T06:24:16.906Z,1.30
2022-12-27T06:26:43.559Z,1.40
2022-12-27T06:29:12.159Z,1.40
2022-12-27T06:31:39.231Z,1.40
2022-12-27T06:34:06.239Z,1.50
2022-12-27T06:37:05.949Z,1.50
2022-12-27T06:39:32.889Z,1.50
2022-12-27T06:41:59.786Z,1.50
2022-12-27T06:44:26.753Z,1.50
2022-12-27T06:46:53.394Z,1.50
2022-12-27T06:49:20.178Z,1.50
2022-12-27T06:52:32.838Z,1.50
2022-12-27T06:54:59.506Z,1.50
2022-12-27T06:57:36.295Z,1.50
2022-12-27T07:00:09.262Z,1.50
2022-12-27T07:02:38.034Z,1.50
2022-12-27T07:05:26.705Z,1.60
2022-12-27T07:07:54.601Z,1.60
2022-12-27T07:10:21.842Z,1.60
2022-12-27T07:13:15.512Z,1.60
2022-12-27T07:15:42.153Z,1.70
2022-12-27T07:18:08.783Z,1.70
2022-12-27T07:20:36.198Z,1.70
2022-12-27T07:23:03.137Z,1.70
2022-12-27T07:25:29.762Z,1.70
2022-12-27T07:27:56.361Z,1.70
2022-12-27T07:30:33.600Z,1.70
2022-12-27T07:33:00.199Z,1.70
2022-12-27T07:35:26.838Z,1.80
2022-12-27T07:37:53.569Z,1.80
2022-12-27T07:40:20.165Z,1.80
2022-12-27T07:42:46.776Z,1.80
2022-12-27T07:45:13.649Z,1.80
2022-12-27T07:47:41.490Z,1.90
2022-12-27T07:50:08.692Z,1.90
2022-12-27T07:52:35.482Z,1.90
2022-12-27T07:55:02.207Z,1.90
2022-12-27T07:57:29.596Z,2.00
2022-12-27T07:59:58.216Z,2.00
2022-12-27T08:02:29.874Z,1.90
2022-12-27T08:04:56.782Z,1.90
2022-12-27T08:07:25.716Z,2.00
2022-12-27T08:09:52.492Z,2.00
2022-12-27T08:12:19.345Z,1.90
2022-12-27T08:14:46.182Z,1.90
2022-12-27T08:17:24.019Z,2.00
2022-12-27T08:19:55.164Z,2.00
2022-12-27T08:22:23.694Z,2.00
2022-12-27T08:24:55.356Z,2.00
2022-12-27T08:27:24.363Z,2.00
2022-12-27T08:30:11.326Z,2.00
2022-12-27T08:32:37.920Z,2.00
2022-12-27T08:35:25.195Z,2.00
2022-12-27T08:37:51.697Z,2.00
2022-12-27T08:40:20.221Z,2.10
2022-12-27T08:42:47.263Z,2.10
2022-12-27T08:45:14.169Z,2.20
2022-12-27T08:47:41.095Z,2.20
2022-12-27T08:50:08.230Z,2.10
2022-12-27T08:52:35.328Z,2.20
2022-12-27T08:55:02.825Z,2.20
2022-12-27T08:57:29.395Z,2.30
2022-12-27T08:59:56.019Z,2.30
2022-12-27T09:02:22.849Z,2.30
2022-12-27T09:04:50.548Z,2.30
2022-12-27T09:07:17.205Z,2.30
2022-12-27T09:09:43.864Z,2.30
2022-12-27T09:12:10.539Z,2.30
2022-12-27T09:14:37.151Z,2.30
2022-12-27T09:17:04.040Z,2.30
2022-12-27T09:19:30.645Z,2.20
2022-12-27T09:21:57.230Z,2.30
2022-12-27T09:24:24.922Z,2.30
2022-12-27T09:26:52.066Z,2.30
2022-12-27T09:29:18.778Z,2.30
2022-12-27T09:31:45.392Z,2.30
2022-12-27T09:34:12.040Z,2.30
2022-12-27T09:36:40.419Z,2.30
2022-12-27T09:39:07.475Z,2.30
2022-12-27T09:44:34.095Z,2.30
2022-12-27T09:47:19.290Z,2.30
2022-12-27T09:49:50.742Z,2.30
2022-12-27T09:52:26.557Z,2.30
2022-12-27T09:55:05.737Z,2.30
2022-12-27T09:57:39.332Z,2.30
2022-12-27T10:00:34.511Z,2.40
2022-12-27T10:03:05.373Z,2.40
2022-12-27T10:05:36.164Z,2.50
2022-12-27T10:08:24.434Z,2.50
2022-12-27T10:10:56.879Z,2.60
2022-12-27T10:13:45.136Z,2.60
2022-12-27T10:16:36.530Z,2.60
2022-12-27T10:19:23.933Z,2.60
2022-12-27T10:22:22.469Z,2.60
2022-12-27T10:24:56.808Z,2.70
2022-12-27T10:27:26.053Z,2.90
2022-12-27T10:29:57.706Z,2.90
2022-12-27T10:32:24.690Z,3.00
2022-12-27T10:35:02.268Z,3.00
2022-12-27T10:37:29.751Z,3.10
2022-12-27T10:40:35.442Z,3.10
2022-12-27T10:43:06.125Z,3.10
2022-12-27T10:45:36.538Z,3.10
2022-12-27T10:48:24.144Z,3.10
2022-12-27T10:50:58.082Z,3.20
2022-12-27T10:53:35.701Z,3.20
2022-12-27T10:56:11.408Z,3.30
2022-12-27T10:58:41.043Z,3.40
2022-12-27T11:01:22.019Z,3.50
2022-12-27T11:03:49.247Z,3.60
2022-12-27T11:06:34.233Z,3.60
2022-12-27T11:09:53.496Z,3.60
2022-12-27T11:12:31.985Z,3.60
2022-12-27T11:15:03.296Z,3.40
2022-12-27T11:18:01.778Z,3.30
2022-12-27T11:20:44.699Z,3.30
2022-12-27T11:23:18.262Z,3.40
2022-12-27T11:25:57.944Z,3.40
2022-12-27T11:28:39.178Z,3.60
2022-12-27T11:31:12.692Z,3.70
2022-12-27T11:33:46.781Z,3.80
2022-12-27T11:36:15.574Z,3.90
2022-12-27T11:38:45.032Z,4.10
2022-12-27T11:41:42.470Z,4.20
2022-12-27T11:44:13.483Z,4.10
2022-12-27T11:46:55.620Z,4.00
2022-12-27T11:49:36.986Z,4.00
2022-12-27T11:52:24.657Z,3.90
2022-12-27T11:55:10.089Z,3.80
2022-12-27T11:58:15.422Z,3.90
2022-12-27T12:01:18.656Z,3.80
2022-12-27T12:04:00.877Z,3.70
2022-12-27T12:06:39.264Z,3.70
2022-12-27T12:09:21.365Z,3.60
2022-12-27T12:12:24.796Z,3.70
2022-12-27T12:15:10.323Z,3.70
2022-12-27T12:17:50.450Z,3.60
2022-12-27T12:20:50.822Z,3.70
2022-12-27T12:23:23.466Z,3.80
2022-12-27T12:26:10.676Z,3.80
2022-12-27T12:29:15.154Z,3.90
2022-12-27T12:32:00.760Z,3.80
2022-12-27T12:34:38.648Z,3.80
2022-12-27T12:37:34.440Z,3.80
2022-12-27T12:40:30.319Z,3.80
2022-12-27T12:43:21.430Z,3.80
2022-12-27T12:46:19.362Z,3.80
2022-12-27T12:49:02.209Z,3.80
2022-12-27T12:52:14.691Z,3.80
2022-12-27T12:55:08.908Z,3.80
2022-12-27T12:57:46.388Z,3.70
2022-12-27T13:00:44.257Z,3.70
2022-12-27T13:03:46.315Z,3.80
2022-12-27T13:06:44.172Z,3.80
2022-12-27T13:09:24.334Z,3.80
2022-12-27T13:12:04.908Z,3.90
2022-12-27T13:15:01.403Z,3.90
2022-12-27T13:17:59.078Z,4.00
2022-12-27T13:20:53.409Z,4.00
2022-12-27T13:23:49.647Z,3.90
2022-12-27T13:26:47.824Z,3.90
2022-12-27T13:29:46.285Z,3.80
2022-12-27T13:32:44.830Z,3.80
2022-12-27T13:35:51.932Z,3.70
2022-12-27T13:39:01.229Z,3.60
2022-12-27T13:41:52.783Z,3.60
2022-12-27T13:44:54.852Z,3.60
2022-12-27T13:47:44.853Z,3.60
2022-12-27T13:50:17.317Z,3.70
2022-12-27T13:53:00.097Z,3.70
2022-12-27T13:55:47.802Z,3.70
2022-12-27T13:58:36.415Z,3.70
2022-12-27T14:01:28.982Z,3.70
2022-12-27T14:04:08.477Z,3.70
2022-12-27T14:07:09.257Z,3.70
2022-12-27T14:09:44.713Z,3.60
2022-12-27T14:12:44.287Z,3.60
2022-12-27T14:15:19.964Z,3.60
2022-12-27T14:18:04.721Z,3.60
2022-12-27T14:21:01.521Z,3.60
2022-12-27T14:23:56.187Z,3.60
2022-12-27T14:26:50.556Z,3.60
2022-12-27T14:29:35.277Z,3.60
2022-12-27T14:32:29.908Z,3.50
2022-12-27T14:35:28.972Z,3.50
2022-12-27T14:38:18.428Z,3.60
2022-12-27T14:41:21.005Z,3.60
2022-12-27T14:44:21.667Z,3.60
2022-12-27T14:46:57.429Z,3.60
2022-12-27T14:49:33.130Z,3.60
2022-12-27T14:52:12.698Z,3.50
2022-12-27T14:55:11.166Z,3.40
2022-12-27T14:57:37.732Z,3.40
2022-12-27T15:00:16.707Z,3.40
2022-12-27T15:02:58.701Z,3.40
2022-12-27T15:06:01.320Z,3.40
2022-12-27T15:08:41.128Z,3.40
2022-12-27T15:11:50.090Z,3.40
2022-12-27T15:14:26.620Z,3.40
2022-12-27T15:17:11.642Z,3.40
2022-12-27T15:20:03.225Z,3.40
2022-12-27T15:22:41.317Z,3.50
2022-12-27T15:25:30.389Z,3.50
2022-12-27T15:28:18.514Z,3.40
2022-12-27T15:31:23.760Z,3.40
2022-12-27T15:34:12.646Z,3.50
2022-12-27T15:36:45.237Z,3.50
2022-12-27T15:39:47.003Z,3.50
2022-12-27T15:42:37.996Z,3.50
2022-12-27T15:45:13.272Z,3.40
2022-12-27T15:47:58.162Z,3.30
2022-12-27T15:50:38.531Z,3.30
2022-12-27T15:53:40.917Z,3.40
2022-12-27T15:56:27.808Z,3.50
2022-12-27T15:59:33.332Z,3.50
2022-12-27T16:02:18.321Z,3.40
2022-12-27T16:04:53.619Z,3.40
2022-12-27T16:07:46.443Z,3.40
2022-12-27T16:10:35.402Z,3.40
2022-12-27T16:13:05.083Z,3.30
2022-12-27T16:15:43.105Z,3.30
2022-12-27T16:18:29.890Z,3.20
2022-12-27T16:21:06.872Z,3.20
2022-12-27T16:23:47.412Z,3.10
2022-12-27T16:26:19.633Z,3.10
2022-12-27T16:28:59.929Z,3.20
2022-12-27T16:32:19.140Z,3.10
2022-12-27T16:34:51.077Z,3.10
2022-12-27T16:37:22.528Z,3.10
2022-12-27T16:39:58.749Z,3.20
2022-12-27T16:42:48.809Z,3.20
2022-12-27T16:45:24.207Z,3.10
2022-12-27T16:48:07.927Z,3.20
2022-12-27T16:50:41.015Z,3.20
2022-12-27T16:53:12.778Z,3.20
2022-12-27T16:55:58.196Z,3.20
2022-12-27T16:58:33.634Z,3.10
2022-12-27T17:01:26.075Z,3.20
2022-12-27T17:03:57.817Z,3.20
2022-12-27T17:06:34.974Z,3.20
2022-12-27T17:09:11.376Z,3.20
2022-12-27T17:11:50.340Z,3.30
2022-12-27T17:14:22.243Z,3.30
2022-12-27T17:16:56.508Z,3.30
2022-12-27T17:19:37.209Z,3.20
2022-12-27T17:22:06.725Z,3.20
2022-12-27T17:24:33.677Z,3.20
2022-12-27T17:27:12.925Z,3.20
2022-12-27T17:30:02.594Z,3.20
2022-12-27T17:33:11.142Z,3.20
2022-12-27T17:36:06.418Z,3.20
2022-12-27T17:38:38.938Z,3.20
2022-12-27T17:41:16.074Z,3.20
2022-12-27T17:44:20.608Z,3.20
2022-12-27T17:47:15.783Z,3.20
2022-12-27T17:50:03.291Z,3.20
2022-12-27T17:52:50.553Z,3.10
2022-12-27T17:55:51.739Z,3.20
2022-12-27T17:58:18.411Z,3.10
2022-12-27T18:00:57.202Z,3.10
2022-12-27T18:03:28.473Z,2.90
2022-12-27T18:05:55.128Z,2.90
2022-12-27T18:08:33.941Z,2.80
2022-12-27T18:11:02.814Z,2.80
2022-12-27T18:13:33.834Z,2.80
2022-12-27T18:16:05.608Z,2.80
2022-12-27T18:18:34.101Z,2.80
2022-12-27T18:21:03.949Z,2.90
2022-12-27T18:23:40.746Z,2.90
2022-12-27T18:26:13.676Z,2.90
2022-12-27T18:28:41.840Z,2.80
2022-12-27T18:31:32.528Z,2.80
2022-12-27T18:34:03.718Z,2.90
2022-12-27T18:36:36.586Z,2.90
2022-12-27T18:39:27.133Z,2.80
2022-12-27T18:41:55.161Z,2.90
2022-12-27T18:44:27.681Z,2.90
2022-12-27T18:46:57.728Z,2.90
2022-12-27T18:49:27.184Z,3.00
2022-12-27T18:51:55.038Z,2.90
2022-12-27T18:54:27.834Z,3.00
2022-12-27T18:57:24.536Z,2.90
2022-12-27T19:00:24.360Z,3.00
2022-12-27T19:02:53.544Z,2.90
2022-12-27T19:05:20.154Z,2.90
2022-12-27T19:07:54.278Z,2.90
2022-12-27T19:10:23.817Z,2.80
2022-12-27T19:12:52.207Z,2.80
2022-12-27T19:15:36.001Z,2.80
2022-12-27T19:18:33.754Z,2.80
2022-12-27T19:21:57.173Z,2.80
2022-12-27T19:24:23.821Z,2.80
2022-12-27T19:26:51.219Z,2.80
2022-12-27T19:29:20.864Z,2.70
2022-12-27T19:31:58.450Z,2.70
2022-12-27T19:34:30.197Z,2.70
2022-12-27T19:36:57.794Z,2.60
2022-12-27T19:39:28.959Z,2.60
2022-12-27T19:42:00.364Z,2.60
2022-12-27T19:44:28.660Z,2.60
2022-12-27T19:46:55.297Z,2.60
2022-12-27T19:49:42.228Z,2.50
2022-12-27T19:52:17.547Z,2.50
2022-12-27T19:54:44.483Z,2.50
2022-12-27T19:57:12.608Z,2.50
2022-12-27T19:59:39.333Z,2.50
2022-12-27T20:02:06.595Z,2.50
2022-12-27T20:04:33.331Z,2.50
2022-12-27T20:07:01.173Z,2.60
2022-12-27T20:09:28.372Z,2.60
2022-12-27T20:11:55.012Z,2.60
2022-12-27T20:14:21.766Z,2.70
2022-12-27T20:16:48.831Z,2.70
2022-12-27T20:19:19.912Z,2.80
2022-12-27T20:21:46.981Z,2.80
2022-12-27T20:24:14.726Z,2.80
2022-12-27T20:26:42.209Z,2.80
2022-12-27T20:29:09.849Z,2.80
2022-12-27T20:31:42.434Z,2.70
2022-12-27T20:34:11.516Z,2.70
2022-12-27T20:36:38.482Z,2.70
2022-12-27T20:39:07.412Z,2.70
2022-12-27T20:41:34.542Z,2.70
2022-12-27T20:44:03.512Z,2.80
2022-12-27T20:46:30.423Z,2.90
2022-12-27T20:48:57.421Z,2.90
2022-12-27T20:51:27.304Z,2.90
2022-12-27T20:53:58.530Z,2.90
2022-12-27T20:56:25.645Z,2.90
2022-12-27T20:58:52.440Z,2.80
2022-12-27T21:01:22.413Z,2.80
2022-12-27T21:03:49.369Z,2.80
2022-12-27T21:06:21.651Z,2.80
2022-12-27T21:08:54.306Z,2.70
2022-12-27T21:11:31.605Z,2.70
2022-12-27T21:14:03.173Z,2.70
2022-12-27T21:16:32.048Z,2.70
2022-12-27T21:19:02.705Z,2.60
2022-12-27T21:21:30.220Z,2.50
2022-12-27T21:23:58.690Z,2.50
2022-12-27T21:26:28.470Z,2.40
2022-12-27T21:28:55.960Z,2.40
2022-12-27T21:31:23.326Z,2.60
2022-12-27T21:33:50.590Z,2.50
2022-12-27T21:36:19.970Z,2.50
2022-12-27T21:38:47.979Z,2.50
2022-12-27T21:41:17.877Z,2.40
2022-12-27T21:43:45.784Z,2.40
2022-12-27T21:46:24.952Z,2.30
2022-12-27T21:49:00.590Z,2.30
2022-12-27T21:51:29.533Z,2.30
2022-12-27T21:53:56.768Z,2.20
2022-12-27T21:56:24.229Z,2.20
2022-12-27T21:58:50.988Z,2.20
2022-12-27T22:01:29.367Z,2.20
2022-12-27T22:03:57.820Z,2.10
2022-12-27T22:06:26.843Z,2.00
2022-12-27T22:08:56.362Z,2.00
2022-12-27T22:11:24.253Z,2.10
2022-12-27T22:13:51.588Z,2.00
2022-12-27T22:16:23.500Z,1.90
2022-12-27T22:18:52.045Z,1.90
2022-12-27T22:21:21.905Z,1.70
2022-12-27T22:23:51.004Z,1.80
2022-12-27T22:26:23.537Z,1.80
2022-12-27T22:28:50.663Z,1.70
2022-12-27T22:31:30.249Z,1.70
2022-12-27T22:33:57.361Z,1.60
2022-12-27T22:36:25.941Z,1.60
2022-12-27T22:42:39.736Z,1.50
2022-12-27T22:45:06.835Z,1.40
2022-12-27T22:47:33.488Z,1.30
2022-12-27T22:50:00.077Z,1.30
2022-12-27T22:52:27.264Z,1.20
2022-12-27T22:55:04.645Z,1.10
2022-12-27T22:57:34.111Z,1.10
2022-12-27T23:00:00.693Z,1.10
2022-12-27T23:02:27.390Z,1.10
2022-12-27T23:04:54.346Z,0.90
2022-12-27T23:07:21.073Z,0.80
2022-12-27T23:10:08.198Z,0.70
2022-12-27T23:12:35.035Z,0.70
2022-12-27T23:15:01.646Z,0.70
2022-12-27T23:17:28.456Z,0.70
2022-12-27T23:19:55.069Z,0.70
2022-12-27T23:22:21.743Z,0.70
2022-12-27T23:24:48.561Z,0.70
2022-12-27T23:27:15.165Z,0.70
2022-12-27T23:29:41.758Z,0.70
2022-12-27T23:32:08.709Z,0.70
2022-12-27T23:34:35.376Z,0.70
2022-12-27T23:37:02.343Z,0.70
2022-12-27T23:39:29.110Z,0.70
2022-12-27T23:41:56.285Z,0.70
2022-12-27T23:44:33.643Z,0.60
2022-12-27T23:47:02.434Z,0.60
2022-12-27T23:49:29.776Z,0.40
2022-12-27T23:51:56.860Z,0.40
2022-12-27T23:54:23.832Z,0.30
2022-12-27T23:56:50.514Z,0.30
2022-12-27T23:59:17.526Z,0.20
